createdAt,value
2019-02-21T00:01:24.348Z,18.70
2019-02-21T00:03:54.600Z,18.23
2019-02-21T00:06:25.399Z,18.00
2019-02-21T00:08:55.606Z,16.87
2019-02-21T00:11:26.125Z,19.17
2019-02-21T00:13:56.659Z,19.03
2019-02-21T00:16:27.159Z,19.03
2019-02-21T00:18:58.727Z,20.07
2019-02-21T00:21:29.420Z,19.63
2019-02-21T00:23:59.987Z,21.40
2019-02-21T00:26:30.487Z,21.40
2019-02-21T00:29:03.074Z,20.40
2019-02-21T00:31:33.576Z,19.90
2019-02-21T00:34:04.114Z,20.27
2019-02-21T00:36:34.570Z,20.60
2019-02-21T00:39:06.331Z,21.30
2019-02-21T00:41:36.557Z,19.57
2019-02-21T00:44:06.797Z,17.83
2019-02-21T00:46:38.282Z,19.47
2019-02-21T00:49:08.542Z,19.43
2019-02-21T00:51:38.825Z,17.77
2019-02-21T00:54:09.035Z,19.60
2019-02-21T00:56:39.516Z,19.77
2019-02-21T00:59:13.820Z,19.00
2019-02-21T01:01:44.721Z,18.23
2019-02-21T01:04:14.972Z,18.43
2019-02-21T01:06:45.200Z,19.57
2019-02-21T01:09:16.228Z,19.43
2019-02-21T01:11:46.434Z,20.00
2019-02-21T01:14:17.857Z,20.07
2019-02-21T01:16:48.811Z,19.50
2019-02-21T01:19:19.096Z,21.40
2019-02-21T01:21:49.768Z,20.50
2019-02-21T01:24:20.002Z,20.83
2019-02-21T01:26:50.476Z,20.37
2019-02-21T01:29:20.927Z,20.80
2019-02-21T01:31:51.304Z,21.27
2019-02-21T01:34:22.010Z,22.37
2019-02-21T01:36:56.127Z,23.07
2019-02-21T01:39:26.740Z,24.13
2019-02-21T01:41:57.267Z,24.60
2019-02-21T01:44:27.520Z,25.90
2019-02-21T01:46:57.719Z,26.00
2019-02-21T01:49:27.952Z,28.40
2019-02-21T01:51:58.217Z,26.77
2019-02-21T01:54:28.522Z,26.60
2019-02-21T01:56:58.682Z,25.63
2019-02-21T01:59:29.315Z,24.70
2019-02-21T02:01:59.530Z,23.90
2019-02-21T02:04:29.757Z,24.40
2019-02-21T02:07:00.183Z,24.40
2019-02-21T02:09:30.394Z,23.73
2019-02-21T02:12:01.041Z,22.67
2019-02-21T02:14:31.293Z,23.83
2019-02-21T02:17:03.274Z,24.30
2019-02-21T02:19:33.791Z,24.87
2019-02-21T02:22:03.943Z,25.13
2019-02-21T02:24:37.428Z,25.10
2019-02-21T02:27:07.771Z,23.63
2019-02-21T02:29:38.027Z,22.20
2019-02-21T02:32:09.746Z,23.97
2019-02-21T02:34:40.226Z,21.87
2019-02-21T02:37:10.441Z,22.47
2019-02-21T02:39:40.633Z,23.53
2019-02-21T02:42:14.933Z,23.87
2019-02-21T02:44:45.173Z,23.77
2019-02-21T02:47:15.804Z,24.30
2019-02-21T02:49:46.040Z,23.40
2019-02-21T02:52:16.267Z,24.20
2019-02-21T02:54:46.472Z,25.20
2019-02-21T02:57:16.746Z,24.23
2019-02-21T02:59:47.371Z,24.00
2019-02-21T03:02:17.628Z,22.97
2019-02-21T03:04:48.268Z,23.20
2019-02-21T03:07:18.815Z,22.87
2019-02-21T03:09:49.025Z,23.60
2019-02-21T03:12:19.357Z,22.77
2019-02-21T03:14:49.971Z,24.77
2019-02-21T03:17:20.179Z,23.83
2019-02-21T03:19:50.400Z,25.77
2019-02-21T03:22:20.683Z,23.73
2019-02-21T03:24:50.887Z,23.87
2019-02-21T03:27:21.090Z,24.53
2019-02-21T03:29:51.632Z,24.40
2019-02-21T03:32:21.836Z,23.40
2019-02-21T03:34:52.125Z,24.07
2019-02-21T03:37:22.605Z,23.27
2019-02-21T03:39:52.883Z,23.10
2019-02-21T03:42:23.465Z,24.07
2019-02-21T03:44:53.713Z,23.17
2019-02-21T03:47:24.264Z,25.80
2019-02-21T03:49:54.917Z,25.23
2019-02-21T03:52:25.078Z,23.40
2019-02-21T03:54:55.323Z,23.40
2019-02-21T03:57:25.579Z,23.70
2019-02-21T03:59:58.045Z,22.83
2019-02-21T04:02:28.629Z,20.77
2019-02-21T04:04:59.025Z,22.43
2019-02-21T04:07:29.589Z,22.37
2019-02-21T04:10:00.189Z,23.33
2019-02-21T04:12:30.891Z,22.97
2019-02-21T04:15:01.136Z,22.10
2019-02-21T04:17:31.367Z,23.10
2019-02-21T04:20:01.569Z,23.80
2019-02-21T04:22:31.816Z,22.03
2019-02-21T04:25:02.039Z,25.20
2019-02-21T04:27:32.279Z,24.40
2019-02-21T04:30:03.150Z,23.83
2019-02-21T04:32:33.401Z,23.80
2019-02-21T04:35:04.362Z,23.87
2019-02-21T04:37:35.642Z,22.37
2019-02-21T04:40:06.602Z,23.50
2019-02-21T04:42:37.133Z,23.93
2019-02-21T04:45:07.469Z,23.90
2019-02-21T04:47:37.732Z,23.03
2019-02-21T04:50:08.277Z,23.87
2019-02-21T04:52:38.517Z,23.77
2019-02-21T04:55:08.723Z,24.57
2019-02-21T04:57:39.053Z,25.00
2019-02-21T05:00:10.346Z,23.90
2019-02-21T05:02:40.884Z,26.90
2019-02-21T05:05:11.414Z,26.77
2019-02-21T05:07:41.698Z,25.90
2019-02-21T05:10:12.201Z,26.17
2019-02-21T05:12:42.704Z,26.67
2019-02-21T05:15:14.108Z,25.13
2019-02-21T05:17:44.912Z,23.63
2019-02-21T05:20:15.527Z,25.60
2019-02-21T05:22:45.733Z,26.20
2019-02-21T05:25:16.464Z,24.57
2019-02-21T05:28:04.791Z,25.57
2019-02-21T05:30:36.339Z,23.67
2019-02-21T05:33:32.021Z,26.13
2019-02-21T05:36:21.607Z,25.80
2019-02-21T05:39:17.790Z,26.13
2019-02-21T05:41:53.485Z,25.93
2019-02-21T05:44:33.665Z,26.80
2019-02-21T05:47:23.263Z,26.00
2019-02-21T05:50:15.154Z,27.00
2019-02-21T05:53:10.522Z,27.37
2019-02-21T05:55:51.728Z,28.03
2019-02-21T05:58:50.310Z,26.87
2019-02-21T06:01:28.298Z,27.90
2019-02-21T06:04:04.469Z,27.43
2019-02-21T06:06:47.601Z,28.10
2019-02-21T06:09:36.771Z,27.40
2019-02-21T06:12:35.040Z,27.27
2019-02-21T06:15:18.208Z,28.40
2019-02-21T06:17:59.236Z,28.43
2019-02-21T06:20:51.566Z,28.43
2019-02-21T06:23:39.459Z,26.83
2019-02-21T06:26:24.356Z,28.40
2019-02-21T06:29:04.670Z,26.90
2019-02-21T06:31:34.932Z,27.40
2019-02-21T06:34:05.201Z,27.90
2019-02-21T06:36:35.653Z,26.73
2019-02-21T06:39:08.701Z,26.40
2019-02-21T06:41:39.223Z,28.63
2019-02-21T06:44:09.662Z,27.27
2019-02-21T06:46:40.311Z,27.60
2019-02-21T06:49:10.597Z,28.70
2019-02-21T06:51:41.127Z,28.53
2019-02-21T06:54:12.727Z,27.93
2019-02-21T06:56:45.597Z,29.07
2019-02-21T06:59:18.943Z,29.43
2019-02-21T07:01:49.229Z,30.30
2019-02-21T07:04:19.688Z,29.07
2019-02-21T07:06:52.528Z,29.27
2019-02-21T07:09:23.297Z,29.27
2019-02-21T07:11:53.637Z,28.63
2019-02-21T07:14:24.191Z,28.93
2019-02-21T07:16:54.891Z,30.43
2019-02-21T07:19:26.125Z,30.90
2019-02-21T07:21:56.856Z,31.90
2019-02-21T07:24:27.468Z,29.87
2019-02-21T07:26:58.660Z,30.40
2019-02-21T07:29:29.837Z,30.33
2019-02-21T07:32:00.206Z,30.60
2019-02-21T07:34:30.895Z,31.23
2019-02-21T07:37:01.560Z,30.67
2019-02-21T07:39:36.145Z,28.90
2019-02-21T07:42:04.063Z,29.00
2019-02-21T07:44:34.433Z,29.77
2019-02-21T07:47:05.251Z,30.57
2019-02-21T07:49:35.572Z,28.90
2019-02-21T07:52:08.770Z,28.97
2019-02-21T07:54:39.602Z,29.73
2019-02-21T07:57:12.475Z,28.63
2019-02-21T07:59:42.134Z,29.43
2019-02-21T08:02:12.822Z,28.50
2019-02-21T08:04:43.161Z,29.03
2019-02-21T08:07:13.534Z,29.23
2019-02-21T08:09:43.958Z,29.33
2019-02-21T08:12:14.200Z,30.33
2019-02-21T08:14:44.588Z,29.30
2019-02-21T08:17:16.251Z,29.57
2019-02-21T08:19:47.025Z,28.60
2019-02-21T08:22:17.303Z,30.33
2019-02-21T08:24:48.066Z,30.03
2019-02-21T08:27:18.803Z,29.77
2019-02-21T08:29:49.205Z,29.33
2019-02-21T08:32:23.003Z,28.50
2019-02-21T08:34:54.468Z,27.67
2019-02-21T08:37:25.441Z,28.57
2019-02-21T08:39:55.810Z,27.90
2019-02-21T08:42:26.094Z,27.53
2019-02-21T08:44:56.546Z,28.03
2019-02-21T08:47:26.835Z,27.53
2019-02-21T08:49:59.554Z,28.90
2019-02-21T08:52:30.130Z,27.43
2019-02-21T08:55:03.240Z,27.17
2019-02-21T08:57:33.624Z,28.37
2019-02-21T09:00:04.149Z,27.43
2019-02-21T09:02:36.024Z,26.37
2019-02-21T09:05:09.439Z,26.60
2019-02-21T09:07:40.113Z,25.73
2019-02-21T09:10:12.083Z,26.37
2019-02-21T09:12:47.553Z,25.67
2019-02-21T09:15:15.804Z,25.63
2019-02-21T09:17:46.142Z,26.00
2019-02-21T09:20:16.587Z,25.23
2019-02-21T09:22:46.987Z,25.33
2019-02-21T09:25:20.399Z,25.53
2019-02-21T09:27:51.271Z,26.13
2019-02-21T09:30:21.661Z,24.43
2019-02-21T09:32:52.771Z,24.70
2019-02-21T09:35:23.197Z,25.57
2019-02-21T09:37:53.532Z,24.70
2019-02-21T09:40:28.388Z,24.80
2019-02-21T09:42:56.240Z,24.60
2019-02-21T09:45:27.664Z,24.03
2019-02-21T09:47:58.162Z,23.47
2019-02-21T09:50:28.607Z,24.10
2019-02-21T09:52:58.987Z,23.43
2019-02-21T09:55:29.889Z,23.77
2019-02-21T09:58:00.275Z,23.57
2019-02-21T10:00:30.526Z,22.37
2019-02-21T10:03:01.062Z,22.13
2019-02-21T10:05:33.442Z,22.10
2019-02-21T10:08:04.338Z,23.03
2019-02-21T10:10:37.664Z,21.60
2019-02-21T10:13:08.406Z,21.90
2019-02-21T10:15:38.804Z,19.73
2019-02-21T10:18:09.074Z,19.67
2019-02-21T10:20:39.574Z,19.47
2019-02-21T10:23:09.968Z,19.53
2019-02-21T10:25:40.664Z,19.20
2019-02-21T10:28:11.094Z,19.30
2019-02-21T10:30:41.835Z,18.33
2019-02-21T10:33:12.594Z,17.33
2019-02-21T10:35:43.165Z,17.33
2019-02-21T10:38:13.708Z,15.90
2019-02-21T10:40:44.036Z,16.17
2019-02-21T10:43:14.552Z,15.20
2019-02-21T10:45:47.733Z,15.17
2019-02-21T10:48:16.933Z,15.13
2019-02-21T10:50:48.242Z,14.47
2019-02-21T10:53:18.565Z,14.07
2019-02-21T10:55:48.883Z,15.03
2019-02-21T10:58:19.613Z,14.87
2019-02-21T11:00:49.949Z,14.50
2019-02-21T11:03:20.272Z,13.87
2019-02-21T11:05:50.959Z,13.63
2019-02-21T11:08:21.829Z,14.03
2019-02-21T11:10:53.163Z,13.80
2019-02-21T11:13:25.331Z,13.00
2019-02-21T11:15:58.836Z,13.60
2019-02-21T11:18:29.317Z,12.87
2019-02-21T11:21:00.077Z,13.23
2019-02-21T11:23:33.220Z,13.83
2019-02-21T11:26:03.699Z,11.50
2019-02-21T11:28:34.040Z,11.23
2019-02-21T11:31:04.462Z,10.80
2019-02-21T11:33:34.952Z,11.43
2019-02-21T11:36:05.496Z,11.37
2019-02-21T11:38:36.109Z,11.00
2019-02-21T11:41:06.603Z,11.90
2019-02-21T11:43:39.371Z,12.73
2019-02-21T11:46:09.626Z,12.00
2019-02-21T11:48:39.963Z,12.73
2019-02-21T11:51:10.320Z,13.17
2019-02-21T11:53:41.175Z,12.27
2019-02-21T11:56:11.542Z,11.90
2019-02-21T11:58:43.960Z,11.67
2019-02-21T12:01:14.411Z,11.77
2019-02-21T12:03:44.682Z,10.70
2019-02-21T12:06:15.403Z,11.47
2019-02-21T12:08:45.854Z,11.43
2019-02-21T12:11:16.293Z,11.60
2019-02-21T12:13:46.554Z,12.30
2019-02-21T12:16:19.050Z,12.03
2019-02-21T12:18:49.377Z,12.70
2019-02-21T12:21:19.801Z,13.30
2019-02-21T12:23:50.530Z,13.80
2019-02-21T12:26:21.095Z,13.97
2019-02-21T12:28:51.598Z,14.40
2019-02-21T12:31:22.314Z,13.77
2019-02-21T12:33:52.682Z,13.70
2019-02-21T12:36:23.295Z,13.93
2019-02-21T12:38:53.820Z,14.50
2019-02-21T12:41:26.488Z,14.47
2019-02-21T12:43:57.180Z,14.20
2019-02-21T12:46:27.906Z,13.73
2019-02-21T12:48:58.323Z,14.80
2019-02-21T12:51:28.687Z,14.90
2019-02-21T12:53:59.704Z,15.13
2019-02-21T12:56:30.057Z,15.63
2019-02-21T12:59:00.340Z,15.30
2019-02-21T13:01:30.966Z,15.07
2019-02-21T13:04:01.331Z,15.73
2019-02-21T13:06:31.664Z,16.13
2019-02-21T13:09:02.203Z,16.30
2019-02-21T13:11:32.517Z,16.17
2019-02-21T13:14:03.521Z,16.50
2019-02-21T13:16:33.852Z,15.87
2019-02-21T13:19:04.200Z,15.93
2019-02-21T13:21:34.940Z,16.07
2019-02-21T13:24:05.328Z,15.60
2019-02-21T13:26:38.171Z,15.80
2019-02-21T13:29:08.489Z,15.90
2019-02-21T13:31:38.938Z,15.47
2019-02-21T13:34:09.527Z,15.17
2019-02-21T13:36:39.880Z,14.27
2019-02-21T13:39:10.116Z,14.70
2019-02-21T13:41:40.811Z,14.70
2019-02-21T13:44:14.195Z,12.93
2019-02-21T13:46:44.673Z,12.53
2019-02-21T13:49:18.613Z,12.13
2019-02-21T13:51:48.976Z,11.50
2019-02-21T13:54:19.648Z,10.40
2019-02-21T13:56:50.342Z,10.20
2019-02-21T13:59:20.737Z,10.50
2019-02-21T14:01:51.470Z,10.40
2019-02-21T14:04:22.523Z,10.03
2019-02-21T14:06:53.185Z,9.97
2019-02-21T14:09:24.484Z,9.70
2019-02-21T14:11:55.428Z,9.57
2019-02-21T14:14:25.860Z,8.87
2019-02-21T14:16:56.281Z,8.53
2019-02-21T14:19:26.958Z,8.40
2019-02-21T14:21:57.545Z,8.13
2019-02-21T14:24:36.482Z,9.73
2019-02-21T14:27:00.248Z,10.53
2019-02-21T14:29:38.757Z,9.70
2019-02-21T14:32:03.354Z,10.30
2019-02-21T14:34:33.645Z,13.43
2019-02-21T14:37:04.251Z,13.50
2019-02-21T14:39:34.930Z,13.87
2019-02-21T14:42:05.292Z,13.80
2019-02-21T14:44:35.614Z,13.70
2019-02-21T14:47:07.900Z,14.00
2019-02-21T14:49:38.161Z,14.20
2019-02-21T14:52:08.980Z,14.70
2019-02-21T14:54:39.314Z,14.70
2019-02-21T14:57:09.699Z,15.17
2019-02-21T14:59:40.114Z,15.63
2019-02-21T15:02:10.783Z,16.07
2019-02-21T15:04:41.153Z,14.97
2019-02-21T15:07:12.114Z,16.10
2019-02-21T15:09:45.521Z,15.67
2019-02-21T15:12:15.032Z,16.33
2019-02-21T15:14:47.070Z,15.77
2019-02-21T15:17:18.578Z,15.80
2019-02-21T15:19:48.993Z,15.83
2019-02-21T15:22:19.632Z,15.73
2019-02-21T15:24:50.242Z,16.03
2019-02-21T15:27:20.566Z,16.03
2019-02-21T15:29:51.514Z,15.90
2019-02-21T15:32:21.904Z,16.53
2019-02-21T15:34:52.188Z,16.17
2019-02-21T15:37:22.928Z,16.47
2019-02-21T15:39:53.385Z,16.17
2019-02-21T15:42:23.787Z,16.40
2019-02-21T15:44:54.073Z,17.07
2019-02-21T15:47:27.198Z,17.47
2019-02-21T15:49:56.925Z,17.87
2019-02-21T15:52:27.791Z,17.30
2019-02-21T15:54:58.461Z,17.33
2019-02-21T15:57:29.011Z,17.90
2019-02-21T15:59:59.611Z,18.37
2019-02-21T16:02:29.981Z,17.57
2019-02-21T16:05:00.782Z,18.03
2019-02-21T16:07:31.121Z,17.40
2019-02-21T16:10:01.767Z,18.17
2019-02-21T16:12:32.507Z,18.83
2019-02-21T16:15:03.238Z,19.47
2019-02-21T16:17:37.162Z,19.30
2019-02-21T16:20:06.467Z,19.73
2019-02-21T16:22:37.115Z,20.63
2019-02-21T16:25:08.998Z,19.90
2019-02-21T16:27:40.530Z,19.33
2019-02-21T16:30:12.709Z,18.77
2019-02-21T16:32:43.815Z,17.87
2019-02-21T16:35:14.131Z,18.37
2019-02-21T16:37:44.602Z,18.93
2019-02-21T16:40:15.030Z,18.63
2019-02-21T16:42:45.689Z,19.07
2019-02-21T16:45:16.058Z,18.87
2019-02-21T16:47:46.631Z,18.30
2019-02-21T16:50:28.841Z,18.60
2019-02-21T16:52:49.040Z,17.93
2019-02-21T16:55:19.711Z,18.83
2019-02-21T16:57:50.073Z,17.73
2019-02-21T17:00:20.938Z,18.70
2019-02-21T17:02:51.436Z,19.10
2019-02-21T17:05:21.990Z,18.57
2019-02-21T17:07:52.432Z,18.53
2019-02-21T17:10:22.840Z,19.13
2019-02-21T17:12:56.574Z,19.97
2019-02-21T17:15:27.731Z,19.47
2019-02-21T17:18:03.355Z,19.67
2019-02-21T17:20:30.096Z,21.27
2019-02-21T17:23:00.395Z,21.20
2019-02-21T17:25:30.997Z,22.40
2019-02-21T17:28:01.297Z,20.60
2019-02-21T17:30:31.667Z,20.50
2019-02-21T17:33:02.340Z,21.40
2019-02-21T17:35:32.599Z,21.03
2019-02-21T17:38:02.838Z,22.07
2019-02-21T17:40:33.091Z,21.80
2019-02-21T17:43:03.378Z,21.63
2019-02-21T17:45:33.662Z,23.03
2019-02-21T17:48:03.941Z,22.30
2019-02-21T17:50:34.514Z,22.97
2019-02-21T17:53:04.739Z,24.47
2019-02-21T17:55:34.890Z,24.30
2019-02-21T17:58:05.592Z,23.83
2019-02-21T18:00:37.131Z,24.07
2019-02-21T18:03:07.608Z,25.27
2019-02-21T18:05:37.847Z,24.37
2019-02-21T18:08:08.594Z,24.10
2019-02-21T18:10:38.981Z,23.83
2019-02-21T18:13:09.965Z,25.90
2019-02-21T18:15:40.205Z,24.40
2019-02-21T18:18:10.519Z,24.80
2019-02-21T18:20:41.036Z,24.93
2019-02-21T18:23:12.483Z,26.10
2019-02-21T18:25:48.874Z,23.57
2019-02-21T18:28:19.219Z,23.00
2019-02-21T18:30:49.432Z,25.37
2019-02-21T18:33:20.272Z,26.00
2019-02-21T18:35:50.544Z,26.97
2019-02-21T18:38:20.758Z,26.07
2019-02-21T18:40:51.051Z,28.80
2019-02-21T18:43:21.568Z,28.83
2019-02-21T18:45:51.800Z,28.27
2019-02-21T18:48:22.456Z,33.03
2019-02-21T18:50:52.673Z,28.62
2019-02-21T18:53:23.236Z,30.07
2019-02-21T18:55:53.523Z,28.97
2019-02-21T18:58:23.810Z,29.67
2019-02-21T19:00:54.064Z,31.27
2019-02-21T19:03:24.279Z,30.07
2019-02-21T19:05:54.926Z,30.07
2019-02-21T19:08:25.145Z,30.07
2019-02-21T19:10:55.385Z,30.23
2019-02-21T19:13:25.610Z,29.53
2019-02-21T19:15:56.210Z,28.93
2019-02-21T19:18:26.668Z,30.97
2019-02-21T19:20:56.888Z,31.60
2019-02-21T19:23:27.124Z,30.80
2019-02-21T19:25:57.294Z,32.33
2019-02-21T19:28:27.503Z,31.93
2019-02-21T19:31:04.864Z,32.00
2019-02-21T19:33:35.078Z,31.70
2019-02-21T19:36:05.436Z,31.50
2019-02-21T19:38:36.411Z,31.07
2019-02-21T19:41:06.910Z,32.30
2019-02-21T19:43:37.491Z,32.43
2019-02-21T19:46:08.088Z,31.60
2019-02-21T19:48:39.180Z,34.88
2019-02-21T19:51:09.723Z,36.57
2019-02-21T19:53:40.183Z,32.40
2019-02-21T19:56:10.387Z,34.33
2019-02-21T19:58:40.705Z,33.63
2019-02-21T20:01:10.949Z,38.53
2019-02-21T20:03:41.509Z,33.37
2019-02-21T20:06:12.009Z,36.63
2019-02-21T20:08:42.761Z,35.77
2019-02-21T20:11:15.987Z,37.40
2019-02-21T20:13:46.840Z,36.97
2019-02-21T20:16:17.142Z,35.60
2019-02-21T20:18:47.446Z,34.17
2019-02-21T20:21:17.748Z,34.07
2019-02-21T20:23:48.380Z,34.87
2019-02-21T20:26:18.748Z,35.23
2019-02-21T20:28:49.347Z,33.80
2019-02-21T20:31:19.606Z,34.43
2019-02-21T20:33:49.851Z,34.60
2019-02-21T20:36:20.108Z,33.93
2019-02-21T20:38:50.577Z,32.73
2019-02-21T20:41:20.853Z,31.70
2019-02-21T20:43:51.066Z,32.57
2019-02-21T20:46:21.320Z,33.83
2019-02-21T20:48:51.674Z,35.33
2019-02-21T20:51:21.940Z,34.70
2019-02-21T20:53:52.540Z,35.57
2019-02-21T20:56:23.042Z,36.93
2019-02-21T20:58:53.339Z,34.07
2019-02-21T21:01:23.731Z,37.07
2019-02-21T21:03:53.964Z,36.77
2019-02-21T21:06:24.216Z,37.63
2019-02-21T21:08:54.417Z,35.43
2019-02-21T21:11:24.828Z,35.60
2019-02-21T21:13:55.964Z,36.47
2019-02-21T21:16:26.514Z,36.70
2019-02-21T21:18:56.805Z,37.37
2019-02-21T21:21:27.274Z,40.00
2019-02-21T21:23:57.547Z,39.13
2019-02-21T21:26:27.742Z,37.93
2019-02-21T21:28:58.045Z,39.10
2019-02-21T21:31:28.333Z,40.37
2019-02-21T21:33:58.852Z,39.83
2019-02-21T21:36:29.856Z,42.43
2019-02-21T21:39:00.244Z,42.00
2019-02-21T21:41:30.431Z,41.37
2019-02-21T21:44:00.671Z,43.53
2019-02-21T21:46:30.933Z,44.47
2019-02-21T21:49:01.130Z,44.17
2019-02-21T21:51:33.998Z,43.57
2019-02-21T21:54:03.712Z,44.93
2019-02-21T21:56:34.213Z,45.20
2019-02-21T21:59:04.454Z,44.13
2019-02-21T22:01:34.729Z,45.90
2019-02-21T22:04:05.519Z,44.13
2019-02-21T22:06:36.055Z,42.40
2019-02-21T22:09:07.099Z,44.23
2019-02-21T22:11:37.352Z,42.17
2019-02-21T22:14:07.663Z,44.17
2019-02-21T22:16:39.096Z,45.83
2019-02-21T22:19:09.391Z,47.27
2019-02-21T22:21:39.659Z,48.53
2019-02-21T22:24:09.905Z,47.17
2019-02-21T22:26:40.515Z,46.63
2019-02-21T22:29:10.780Z,49.10
2019-02-21T22:31:41.320Z,49.87
2019-02-21T22:34:11.603Z,47.23
2019-02-21T22:36:41.913Z,50.53
2019-02-21T22:39:16.432Z,49.43
2019-02-21T22:41:43.974Z,48.37
2019-02-21T22:44:14.198Z,49.10
2019-02-21T22:46:44.564Z,49.10
2019-02-21T22:49:16.617Z,48.20
2019-02-21T22:51:46.791Z,48.33
2019-02-21T22:54:17.449Z,48.50
2019-02-21T22:56:47.658Z,48.93
2019-02-21T22:59:17.882Z,48.23
2019-02-21T23:01:48.939Z,49.87
2019-02-21T23:05:09.130Z,47.43
2019-02-21T23:07:46.409Z,46.90
2019-02-21T23:10:16.632Z,50.83
2019-02-21T23:12:46.897Z,49.00
2019-02-21T23:15:17.814Z,46.87
2019-02-21T23:17:48.398Z,40.40
2019-02-21T23:20:18.588Z,39.83
2019-02-21T23:22:48.861Z,42.23
2019-02-21T23:25:20.438Z,42.03
2019-02-21T23:27:51.000Z,39.93
2019-02-21T23:30:21.218Z,41.07
2019-02-21T23:32:51.455Z,40.37
2019-02-21T23:35:22.269Z,41.17
2019-02-21T23:37:52.866Z,41.73
2019-02-21T23:40:23.666Z,40.97
2019-02-21T23:42:55.548Z,38.50
2019-02-21T23:45:26.037Z,36.93
2019-02-21T23:47:56.916Z,39.07
2019-02-21T23:50:27.444Z,40.87
2019-02-21T23:52:57.603Z,40.20
2019-02-21T23:55:28.321Z,40.13
2019-02-21T23:57:58.979Z,38.70
